createdAt,value
2023-01-08T09:23:13.813Z,-5.17
2023-01-08T09:25:40.836Z,-5.20
2023-01-08T09:28:09.162Z,-5.26
2023-01-08T09:30:36.154Z,-5.33
2023-01-08T09:33:03.540Z,-5.37
2023-01-08T09:35:31.528Z,-5.42
2023-01-08T09:37:58.513Z,-5.49
2023-01-08T09:40:35.601Z,-5.59
2023-01-08T09:43:03.473Z,-5.69
2023-01-08T09:45:31.750Z,-5.77
2023-01-08T09:47:59.780Z,-5.83
2023-01-08T09:50:28.011Z,-5.91
2023-01-08T09:52:55.113Z,-5.89
2023-01-08T09:55:22.107Z,-5.86
2023-01-08T09:57:49.226Z,-5.93
2023-01-08T10:00:28.265Z,-6.00
2023-01-08T10:02:55.505Z,-6.03
2023-01-08T10:05:22.593Z,-6.02
2023-01-08T10:07:49.562Z,-5.99
2023-01-08T10:10:27.339Z,-5.87
2023-01-08T10:12:54.364Z,-5.79
2023-01-08T10:15:21.848Z,-5.78
2023-01-08T10:17:54.394Z,-5.77
2023-01-08T10:20:23.092Z,-5.76
2023-01-08T10:22:50.432Z,-5.76
2023-01-08T10:25:22.495Z,-5.75
2023-01-08T10:27:51.436Z,-5.66
2023-01-08T10:30:22.910Z,-5.60
2023-01-08T10:32:54.941Z,-5.63
2023-01-08T10:35:25.258Z,-5.65
2023-01-08T10:37:52.284Z,-5.65
2023-01-08T10:40:25.577Z,-5.63
2023-01-08T10:42:52.653Z,-5.62
2023-01-08T10:45:26.728Z,-5.62
2023-01-08T10:47:57.195Z,-5.49
2023-01-08T10:50:29.614Z,-5.44
2023-01-08T10:53:01.163Z,-5.48
2023-01-08T10:55:39.780Z,-5.52
2023-01-08T10:58:09.919Z,-5.54
2023-01-08T11:00:37.439Z,-5.56
2023-01-08T11:03:06.691Z,-5.58
2023-01-08T11:05:38.332Z,-5.62
2023-01-08T11:08:07.388Z,-5.55
2023-01-08T11:10:37.474Z,-5.45
2023-01-08T11:13:07.296Z,-5.42
2023-01-08T11:15:39.170Z,-5.41
2023-01-08T11:18:08.152Z,-5.43
2023-01-08T11:20:35.289Z,-5.46
2023-01-08T11:23:26.914Z,-5.52
2023-01-08T11:26:16.813Z,-5.56
2023-01-08T11:29:00.584Z,-5.45
2023-01-08T11:31:37.507Z,-5.34
2023-01-08T11:34:08.269Z,-5.34
2023-01-08T11:36:36.812Z,-5.35
2023-01-08T11:39:03.762Z,-5.36
2023-01-08T11:41:52.931Z,-5.35
2023-01-08T11:44:24.411Z,-5.35
2023-01-08T11:47:14.766Z,-5.35
2023-01-08T11:49:44.871Z,-5.35
2023-01-08T11:52:24.162Z,-5.33
2023-01-08T11:55:16.817Z,-5.21
2023-01-08T11:58:23.369Z,-5.15
2023-01-08T12:01:12.625Z,-5.16
2023-01-08T14:39:32.223Z,-5.68
2023-01-08T14:42:20.712Z,-5.06
2023-01-08T14:44:56.914Z,-4.97
2023-01-08T14:47:23.920Z,-5.00
2023-01-08T14:49:52.499Z,-5.06
2023-01-08T14:52:20.896Z,-5.12
2023-01-08T15:07:23.399Z,-5.13
2023-01-08T15:09:58.058Z,-5.17
2023-01-08T15:12:26.945Z,-5.29
2023-01-08T15:14:55.421Z,-5.42
2023-01-08T15:17:26.327Z,-5.53
2023-01-08T15:19:57.271Z,-5.65
2023-01-08T15:22:28.539Z,-5.77
2023-01-08T15:25:03.022Z,-5.87
2023-01-08T15:27:31.698Z,-5.87
2023-01-08T15:30:03.802Z,-5.85
2023-01-08T15:32:32.714Z,-5.84
2023-01-08T15:34:59.740Z,-5.84
2023-01-08T15:37:27.269Z,-5.83
2023-01-08T15:39:54.268Z,-5.81
2023-01-08T15:42:47.234Z,-5.79
2023-01-08T15:45:18.676Z,-5.77
2023-01-08T15:47:45.704Z,-5.80
2023-01-08T15:50:12.877Z,-5.90
2023-01-08T15:52:40.999Z,-5.99
2023-01-08T15:55:10.111Z,-6.09
2023-01-08T15:57:38.617Z,-6.18
2023-01-08T16:00:08.385Z,-6.26
2023-01-08T16:02:48.183Z,-6.35
2023-01-08T16:05:17.735Z,-6.46
2023-01-08T16:07:47.743Z,-6.55
2023-01-08T16:10:15.632Z,-6.62
2023-01-08T16:12:43.840Z,-6.66
2023-01-08T16:15:11.945Z,-6.61
2023-01-08T16:17:39.033Z,-6.51
2023-01-08T16:20:06.794Z,-6.43
2023-01-08T16:22:33.785Z,-6.37
2023-01-08T16:25:00.898Z,-6.32
2023-01-08T16:27:27.960Z,-6.29
2023-01-08T16:29:55.061Z,-6.27
2023-01-08T16:32:22.029Z,-6.23
2023-01-08T16:34:49.080Z,-6.22
2023-01-08T16:37:16.020Z,-6.22
2023-01-08T16:39:43.015Z,-6.22
2023-01-08T16:42:12.093Z,-6.21
2023-01-08T16:44:39.096Z,-6.19
2023-01-08T16:47:06.199Z,-6.16
2023-01-08T16:49:33.835Z,-6.13
2023-01-08T16:52:00.870Z,-6.12
2023-01-08T16:54:27.997Z,-6.13
2023-01-08T16:56:55.200Z,-6.15
2023-01-08T16:59:23.877Z,-6.18
2023-01-08T17:01:52.397Z,-6.18
2023-01-08T17:04:19.932Z,-6.17
2023-01-08T17:06:47.164Z,-6.16
2023-01-08T17:09:15.136Z,-6.15
2023-01-08T17:11:42.486Z,-6.15
2023-01-08T17:14:09.676Z,-6.16
2023-01-08T17:16:36.798Z,-6.18
2023-01-08T17:19:03.990Z,-6.27
2023-01-08T17:21:31.038Z,-6.38
2023-01-08T17:23:58.092Z,-6.50
2023-01-08T17:26:25.231Z,-6.59
2023-01-08T17:28:52.275Z,-6.69
2023-01-08T17:31:19.524Z,-6.77
2023-01-08T17:33:50.633Z,-6.83
2023-01-08T17:36:20.547Z,-6.89
2023-01-08T17:38:47.542Z,-6.92
2023-01-08T17:41:34.481Z,-6.84
2023-01-08T17:44:01.761Z,-6.76
2023-01-08T17:46:28.784Z,-6.69
2023-01-08T17:48:55.754Z,-6.64
2023-01-08T17:51:22.846Z,-6.60
2023-01-08T17:53:49.999Z,-6.55
2023-01-08T17:56:17.088Z,-6.52
2023-01-08T17:58:44.126Z,-6.50
2023-01-08T18:01:14.719Z,-6.48
2023-01-08T18:03:41.966Z,-6.47
2023-01-08T18:06:10.357Z,-6.44
2023-01-08T18:08:38.231Z,-6.41
2023-01-08T18:11:05.863Z,-6.37
2023-01-08T18:13:33.097Z,-6.35
2023-01-08T18:16:11.121Z,-6.36
2023-01-08T18:18:38.723Z,-6.39
2023-01-08T18:21:06.224Z,-6.41
2023-01-08T18:23:33.272Z,-6.43
2023-01-08T18:26:05.260Z,-6.45
2023-01-08T18:28:32.289Z,-6.42
2023-01-08T18:30:59.346Z,-6.42
2023-01-08T18:33:26.368Z,-6.41
2023-01-08T18:35:53.610Z,-6.40
2023-01-08T18:38:20.794Z,-6.39
2023-01-08T18:40:48.649Z,-6.39
2023-01-08T18:43:15.643Z,-6.39
2023-01-08T18:45:42.729Z,-6.38
2023-01-08T18:48:09.928Z,-6.41
2023-01-08T18:50:40.605Z,-6.42
2023-01-08T18:53:08.887Z,-6.44
2023-01-08T18:55:37.414Z,-6.45
2023-01-08T18:58:04.895Z,-6.46
2023-01-08T19:00:32.112Z,-6.48
2023-01-08T19:02:59.146Z,-6.49
2023-01-08T19:05:26.228Z,-6.50
2023-01-08T19:07:53.317Z,-6.51
2023-01-08T19:10:21.933Z,-6.53
2023-01-08T19:12:50.905Z,-6.53
2023-01-08T19:15:17.980Z,-6.52
2023-01-08T19:17:44.966Z,-6.51
2023-01-08T19:20:12.104Z,-6.51
2023-01-08T19:22:39.139Z,-6.52
2023-01-08T19:25:06.551Z,-6.54
2023-01-08T19:27:35.264Z,-6.55
2023-01-08T19:30:03.585Z,-6.58
2023-01-08T19:32:30.589Z,-6.62
2023-01-08T19:34:57.598Z,-6.63
2023-01-08T22:23:26.235Z,-7.15
2023-01-08T22:25:53.185Z,-6.49
2023-01-08T22:28:20.203Z,-6.35
2023-01-08T22:30:47.164Z,-6.26
2023-01-08T22:33:14.259Z,-6.20
2023-01-08T22:35:41.177Z,-6.18
2023-01-08T22:38:08.223Z,-6.18
2023-01-08T22:40:35.228Z,-6.18
2023-01-08T22:43:02.296Z,-6.24
2023-01-08T22:45:29.346Z,-6.33
2023-01-08T22:47:56.559Z,-6.44
2023-01-08T22:50:23.549Z,-6.55
2023-01-08T22:52:50.510Z,-6.65
2023-01-08T22:55:18.163Z,-6.74
2023-01-08T22:57:45.196Z,-6.83
2023-01-08T23:00:12.904Z,-6.90
2023-01-08T23:02:39.877Z,-6.93
2023-01-08T23:05:07.227Z,-6.88
2023-01-08T23:07:34.249Z,-6.77
2023-01-08T23:10:01.306Z,-6.70
2023-01-08T23:12:28.338Z,-6.65
2023-01-08T23:14:55.413Z,-6.58
2023-01-08T23:17:22.452Z,-6.51
2023-01-08T23:19:49.413Z,-6.43
2023-01-08T23:22:16.436Z,-6.35
2023-01-08T23:24:43.388Z,-6.29
2023-01-08T23:27:10.349Z,-6.25
2023-01-08T23:29:37.337Z,-6.28
2023-01-08T23:32:04.572Z,-6.35
2023-01-08T23:34:31.575Z,-6.44
2023-01-08T23:36:58.597Z,-6.53
2023-01-08T23:39:28.387Z,-6.63
2023-01-08T23:41:56.400Z,-6.70
2023-01-08T23:44:23.481Z,-6.77
2023-01-08T23:46:50.441Z,-6.81
2023-01-08T23:49:17.451Z,-6.82
2023-01-08T23:51:44.459Z,-6.71
2023-01-08T23:54:11.535Z,-6.67
2023-01-08T23:56:39.062Z,-6.69
2023-01-08T23:59:06.218Z,-6.71
